Homestown, Missouri
Current Conditions -  °F | °C
As of 9:53 AM on Monday 26 Jan 2015 (Local Time) from KHKA Reporting Station
Overcast Overcast  
Wind Chill:   Ceiling: 2200
Heat Index:   Visibility: 10mi
Dew Point: -1°   Wind: 13mph
Humidity: 73%   Direction: 300°WNW
Pressure: 30.12"   Gusts: NA
Location:  36.3524°N, 89.8327°W
Report Text: KHKA 261553Z AUTO 30011KT 10SM OVC022 04/M01 A3012 RMK AO2 SLP201 T00391006
Loading
Personal Weather Stations






























Interactive Weather Map New forecast layout! Learn more

10-Day Weather Forecast

Advertisements
Track Severe Weather on mobile